Time;durP1;ratioP1;P1;durP2;ratioP2;P2;SDS_P1;SDS_P2;PMS_P1;PMS_P2;Temp;Humidity;BMP_temperature;BMP_pressure;BME280_temperature;BME280_humidity;BME280_pressure;Samples;Min_cycle;Max_cycle;Signal;HPM_P1;HPM_P2
2022/04/25 00:01:27;;;;;;;10.57;6.67;;;;;;;;;;5005358;28;20681;-69
2022/04/25 00:03:52;;;;;;;8.10;6.90;;;;;;;;;;5006969;28;20241;-70
2022/04/25 00:06:17;;;;;;;11.40;7.30;;;;;;;;;;5000386;28;20230;-70
2022/04/25 00:08:42;;;;;;;10.60;7.30;;;;;;;;;;5007197;28;20282;-70
2022/04/25 00:11:07;;;;;;;10.93;7.33;;;;;;;;;;5008106;28;20190;-69
2022/04/25 00:13:33;;;;;;;10.57;7.73;;;;;;;;;;5007874;28;20195;-71
2022/04/25 00:15:58;;;;;;;11.00;8.80;;;;;;;;;;5002552;28;20654;-69
2022/04/25 00:18:23;;;;;;;11.07;6.40;;;;;;;;;;5003795;28;20632;-70
2022/04/25 00:20:48;;;;;;;13.97;7.83;;;;;;;;;;5011364;28;20195;-71
2022/04/25 00:23:14;;;;;;;8.63;7.00;;;;;;;;;;5001039;28;20641;-71
2022/04/25 00:25:39;;;;;;;14.57;8.90;;;;;;;;;;5015593;28;20175;-71
2022/04/25 00:28:05;;;;;;;9.90;7.93;;;;;;;;;;5004375;28;20175;-71
2022/04/25 00:30:30;;;;;;;10.43;7.30;;;;;;;;;;5001336;28;20207;-72
2022/04/25 00:32:56;;;;;;;12.50;7.73;;;;;;;;;;5007421;28;20266;-70
2022/04/25 00:35:21;;;;;;;10.37;7.20;;;;;;;;;;5013379;28;20186;-69
2022/04/25 00:37:46;;;;;;;9.77;7.13;;;;;;;;;;5009806;28;20190;-70
2022/04/25 00:40:12;;;;;;;14.90;7.87;;;;;;;;;;5011908;28;20669;-70
2022/04/25 00:42:38;;;;;;;11.07;6.87;;;;;;;;;;5009199;28;20179;-71
2022/04/25 00:45:03;;;;;;;14.47;7.90;;;;;;;;;;5004072;28;20716;-71
2022/04/25 00:47:29;;;;;;;10.73;7.50;;;;;;;;;;5004262;28;20668;-68
2022/04/25 00:49:54;;;;;;;13.53;7.43;;;;;;;;;;5011510;28;20189;-72
2022/04/25 00:52:20;;;;;;;10.63;7.83;;;;;;;;;;5001334;28;20175;-72
2022/04/25 00:54:45;;;;;;;10.63;7.73;;;;;;;;;;5011444;28;20187;-69
2022/04/25 00:57:11;;;;;;;14.43;8.13;;;;;;;;;;5006546;28;20179;-69
2022/04/25 00:59:36;;;;;;;10.37;7.53;;;;;;;;;;5010001;28;20191;-69
2022/04/25 01:02:01;;;;;;;12.93;7.90;;;;;;;;;;5005080;28;20218;-68
2022/04/25 01:04:26;;;;;;;15.07;8.73;;;;;;;;;;5002366;28;20211;-71
2022/04/25 01:06:52;;;;;;;12.73;8.83;;;;;;;;;;5007303;28;20175;-71
2022/04/25 01:09:17;;;;;;;12.07;8.50;;;;;;;;;;5009322;28;20201;-72
2022/04/25 01:11:42;;;;;;;12.73;8.33;;;;;;;;;;5008018;28;20198;-73
2022/04/25 01:14:11;;;;;;;11.13;7.63;;;;;;;;;;5011530;28;20179;-69
2022/04/25 01:16:37;;;;;;;12.03;8.37;;;;;;;;;;5011602;28;20187;-70
2022/04/25 01:19:02;;;;;;;11.37;7.90;;;;;;;;;;5002016;28;20189;-71
2022/04/25 01:21:28;;;;;;;11.90;8.90;;;;;;;;;;5007943;28;20199;-71
2022/04/25 01:29:21;;;;;;;13.70;8.30;;;;;;;;;;4994830;28;20221;-70
2022/04/25 01:31:46;;;;;;;11.07;8.03;;;;;;;;;;5002858;28;20234;-70
2022/04/25 01:34:11;;;;;;;11.27;8.30;;;;;;;;;;5006231;28;20229;-70
2022/04/25 01:36:36;;;;;;;11.10;7.77;;;;;;;;;;5004281;28;20682;-72
2022/04/25 01:39:01;;;;;;;11.17;7.53;;;;;;;;;;5004753;28;20676;-71
2022/04/25 01:41:27;;;;;;;14.77;7.60;;;;;;;;;;5004733;28;20204;-70
2022/04/25 01:43:52;;;;;;;10.80;7.57;;;;;;;;;;5000617;28;20257;-70
2022/04/25 01:46:17;;;;;;;13.57;8.80;;;;;;;;;;5005227;28;20175;-70
2022/04/25 01:48:42;;;;;;;16.23;8.17;;;;;;;;;;4991079;28;20175;-70
2022/04/25 01:51:07;;;;;;;14.50;7.63;;;;;;;;;;5009112;28;20194;-70
2022/04/25 01:53:33;;;;;;;14.27;8.87;;;;;;;;;;5003621;28;20192;-70
2022/04/25 01:55:58;;;;;;;14.03;8.17;;;;;;;;;;5011678;28;20187;-70
2022/04/25 01:58:25;;;;;;;12.23;7.80;;;;;;;;;;5007795;28;20266;-70
2022/04/25 02:00:50;;;;;;;13.60;7.83;;;;;;;;;;5010617;28;20264;-72
2022/04/25 02:03:15;;;;;;;16.70;8.03;;;;;;;;;;5008665;28;20627;-70
2022/04/25 02:05:40;;;;;;;14.70;7.97;;;;;;;;;;5010877;28;20455;-72
2022/04/25 02:08:05;;;;;;;10.43;7.30;;;;;;;;;;5010150;28;20181;-70
2022/04/25 02:10:31;;;;;;;12.47;8.93;;;;;;;;;;5009044;28;20560;-70
2022/04/25 02:12:56;;;;;;;14.23;7.80;;;;;;;;;;5007821;28;20262;-70
2022/04/25 02:15:22;;;;;;;14.43;7.63;;;;;;;;;;5008572;28;20203;-71
2022/04/25 02:17:47;;;;;;;12.20;9.57;;;;;;;;;;5012063;28;20665;-70
2022/04/25 02:20:12;;;;;;;10.70;7.97;;;;;;;;;;5013242;28;20279;-70
2022/04/25 02:22:38;;;;;;;17.53;8.67;;;;;;;;;;5008797;28;20213;-70
2022/04/25 02:25:03;;;;;;;14.00;8.63;;;;;;;;;;5011956;28;20203;-70
2022/04/25 02:27:28;;;;;;;11.33;8.23;;;;;;;;;;5011671;28;20253;-70
2022/04/25 02:29:58;;;;;;;13.20;8.50;;;;;;;;;;5011258;28;20261;-71
2022/04/25 02:32:28;;;;;;;14.23;8.80;;;;;;;;;;5010944;28;20180;-70
2022/04/25 02:34:54;;;;;;;12.90;8.83;;;;;;;;;;5006402;28;20321;-70
2022/04/25 02:37:19;;;;;;;15.53;9.27;;;;;;;;;;5012838;28;20179;-70
2022/04/25 02:39:44;;;;;;;13.27;8.67;;;;;;;;;;5006634;28;20194;-70
2022/04/25 02:42:09;;;;;;;13.53;8.23;;;;;;;;;;5006573;28;20206;-72
2022/04/25 02:44:35;;;;;;;15.27;10.13;;;;;;;;;;5004024;28;20690;-69
2022/04/25 02:47:00;;;;;;;12.53;8.30;;;;;;;;;;5007994;28;20175;-71
2022/04/25 02:49:25;;;;;;;11.20;8.40;;;;;;;;;;4996445;28;20187;-69
2022/04/25 02:51:50;;;;;;;13.40;8.30;;;;;;;;;;5012629;28;20191;-72
2022/04/25 02:54:15;;;;;;;10.53;8.40;;;;;;;;;;5010314;28;20183;-71
2022/04/25 02:56:41;;;;;;;12.93;8.70;;;;;;;;;;5009801;28;20190;-70
2022/04/25 02:59:07;;;;;;;13.50;8.07;;;;;;;;;;5012402;28;20823;-71
2022/04/25 03:01:32;;;;;;;12.00;8.47;;;;;;;;;;5005819;28;20309;-70
2022/04/25 03:03:57;;;;;;;14.57;8.50;;;;;;;;;;5005169;28;20264;-70
2022/04/25 03:06:22;;;;;;;13.27;9.00;;;;;;;;;;5007754;28;20172;-71
2022/04/25 03:08:47;;;;;;;13.77;8.07;;;;;;;;;;5005994;28;20250;-71
2022/04/25 03:11:13;;;;;;;18.63;9.90;;;;;;;;;;5010341;28;20199;-72
2022/04/25 03:13:41;;;;;;;13.77;9.27;;;;;;;;;;5011874;28;20190;-72
2022/04/25 03:16:07;;;;;;;13.63;8.90;;;;;;;;;;5008626;28;20184;-71
2022/04/25 03:18:32;;;;;;;13.43;9.40;;;;;;;;;;5011665;28;20561;-72
2022/04/25 03:20:58;;;;;;;18.00;9.27;;;;;;;;;;5012848;28;20275;-71
2022/04/25 03:23:23;;;;;;;13.63;9.03;;;;;;;;;;5007662;28;20348;-71
2022/04/25 03:25:49;;;;;;;15.83;9.67;;;;;;;;;;5004509;28;20257;-73
2022/04/25 03:28:15;;;;;;;14.20;9.27;;;;;;;;;;5007020;28;20183;-70
2022/04/25 03:30:41;;;;;;;17.03;9.00;;;;;;;;;;5003099;28;20246;-72
2022/04/25 03:33:06;;;;;;;11.27;8.67;;;;;;;;;;5006697;28;20171;-70
2022/04/25 03:35:32;;;;;;;13.03;9.30;;;;;;;;;;5012329;28;20601;-69
2022/04/25 03:37:58;;;;;;;12.23;9.07;;;;;;;;;;5012816;28;20167;-70
2022/04/25 03:40:23;;;;;;;17.23;9.60;;;;;;;;;;5011893;28;20191;-72
2022/04/25 03:42:48;;;;;;;12.37;8.90;;;;;;;;;;5010924;28;20644;-70
2022/04/25 03:45:16;;;;;;;14.87;9.47;;;;;;;;;;5011045;28;20595;-72
2022/04/25 03:47:41;;;;;;;13.83;8.57;;;;;;;;;;5006493;28;20167;-71
2022/04/25 03:50:08;;;;;;;15.10;8.93;;;;;;;;;;5006143;28;20217;-69
2022/04/25 03:52:37;;;;;;;15.07;9.40;;;;;;;;;;5005573;28;20217;-72
2022/04/25 03:57:49;;;;;;;15.83;10.97;;;;;;;;;;5012219;28;20205;-70
2022/04/25 04:00:15;;;;;;;15.73;9.17;;;;;;;;;;5007674;28;20234;-73
2022/04/25 04:02:40;;;;;;;13.03;9.33;;;;;;;;;;5010600;28;20210;-70
2022/04/25 04:05:05;;;;;;;13.77;10.00;;;;;;;;;;5006336;28;20207;-70
2022/04/25 04:07:31;;;;;;;15.13;9.57;;;;;;;;;;5006648;28;20655;-69
2022/04/25 04:09:56;;;;;;;13.33;9.50;;;;;;;;;;5000116;28;20624;-70
2022/04/25 04:12:23;;;;;;;14.67;9.70;;;;;;;;;;5000975;28;20694;-70
2022/04/25 04:14:48;;;;;;;15.97;9.43;;;;;;;;;;4997874;28;20190;-70
2022/04/25 04:17:17;;;;;;;15.70;9.97;;;;;;;;;;5011344;28;20473;-70
2022/04/25 04:19:43;;;;;;;15.87;9.00;;;;;;;;;;5009407;28;20198;-72
2022/04/25 04:22:08;;;;;;;12.80;9.77;;;;;;;;;;5007531;28;20284;-70
2022/04/25 04:24:36;;;;;;;13.60;8.57;;;;;;;;;;5009562;28;20214;-69
2022/04/25 04:27:02;;;;;;;12.70;8.77;;;;;;;;;;5006211;28;20206;-71
2022/04/25 04:29:29;;;;;;;15.20;10.40;;;;;;;;;;5010028;28;20222;-70
2022/04/25 04:31:54;;;;;;;11.10;9.07;;;;;;;;;;4997752;28;20203;-70
2022/04/25 04:34:20;;;;;;;15.00;9.90;;;;;;;;;;5002986;28;20563;-70
2022/04/25 04:36:45;;;;;;;14.13;10.57;;;;;;;;;;5005867;28;20262;-70
2022/04/25 04:39:10;;;;;;;14.90;10.27;;;;;;;;;;5008789;28;20194;-70
2022/04/25 04:41:35;;;;;;;15.83;9.83;;;;;;;;;;5010420;28;20213;-70
2022/04/25 04:44:00;;;;;;;15.47;10.67;;;;;;;;;;5011195;28;20241;-69
2022/04/25 04:46:25;;;;;;;18.17;10.67;;;;;;;;;;5010546;28;20257;-71
2022/04/25 04:48:51;;;;;;;15.93;11.60;;;;;;;;;;5010689;28;20236;-71
2022/04/25 04:51:16;;;;;;;13.70;10.40;;;;;;;;;;5007790;28;20249;-71
2022/04/25 04:53:41;;;;;;;18.70;11.63;;;;;;;;;;5011067;28;20183;-69
2022/04/25 04:56:06;;;;;;;15.43;11.10;;;;;;;;;;5011400;28;20588;-71
2022/04/25 04:58:31;;;;;;;16.37;10.20;;;;;;;;;;5010832;28;20187;-71
2022/04/25 05:00:57;;;;;;;15.23;10.30;;;;;;;;;;4999107;28;20202;-70
2022/04/25 05:03:25;;;;;;;14.23;11.57;;;;;;;;;;5006721;28;20561;-70
2022/04/25 05:05:50;;;;;;;16.03;10.87;;;;;;;;;;5009444;28;20175;-71
2022/04/25 05:08:16;;;;;;;13.03;11.20;;;;;;;;;;5008921;28;20256;-70
2022/04/25 05:10:41;;;;;;;18.13;12.90;;;;;;;;;;5009603;28;20293;-73
2022/04/25 05:13:06;;;;;;;17.97;11.00;;;;;;;;;;5010776;28;20232;-70
2022/04/25 05:15:31;;;;;;;15.73;11.40;;;;;;;;;;5010159;28;20294;-70
2022/04/25 05:17:58;;;;;;;14.57;11.17;;;;;;;;;;5006541;28;20171;-70
2022/04/25 05:20:24;;;;;;;14.87;11.47;;;;;;;;;;5007303;28;20199;-70
2022/04/25 05:22:50;;;;;;;13.67;10.37;;;;;;;;;;5004711;28;20179;-70
2022/04/25 05:25:16;;;;;;;17.40;13.30;;;;;;;;;;5010838;28;20686;-70
2022/04/25 05:27:42;;;;;;;16.00;12.43;;;;;;;;;;5003397;28;20206;-72
2022/04/25 05:30:07;;;;;;;13.90;10.43;;;;;;;;;;5006383;28;20567;-70
2022/04/25 05:32:42;;;;;;;13.80;11.23;;;;;;;;;;5008215;28;20214;-70
2022/04/25 05:35:08;;;;;;;15.53;11.23;;;;;;;;;;5006392;28;20197;-70
2022/04/25 05:37:33;;;;;;;15.97;11.30;;;;;;;;;;5010410;28;20191;-71
2022/04/25 05:39:58;;;;;;;17.67;12.53;;;;;;;;;;5005604;28;20282;-72
2022/04/25 05:42:23;;;;;;;15.70;12.30;;;;;;;;;;5007024;28;20183;-70
2022/04/25 05:44:48;;;;;;;18.03;11.83;;;;;;;;;;5000583;28;20203;-69
2022/04/25 05:47:13;;;;;;;16.03;12.83;;;;;;;;;;5006914;28;20175;-70
2022/04/25 05:52:22;;;;;;;17.60;13.07;;;;;;;;;;5013493;28;20182;-70
2022/04/25 05:54:48;;;;;;;18.17;13.63;;;;;;;;;;5012948;28;20171;-70
2022/04/25 05:57:13;;;;;;;18.77;12.57;;;;;;;;;;5008096;28;20178;-71
2022/04/25 05:59:38;;;;;;;18.73;12.93;;;;;;;;;;5011169;28;20187;-71
2022/04/25 06:02:03;;;;;;;18.97;13.70;;;;;;;;;;5005201;28;20293;-71
2022/04/25 06:04:30;;;;;;;17.20;13.27;;;;;;;;;;5007580;28;20293;-71
2022/04/25 06:06:55;;;;;;;17.20;12.17;;;;;;;;;;5012105;28;20211;-70
2022/04/25 06:09:22;;;;;;;19.50;12.70;;;;;;;;;;5011251;28;20201;-69
2022/04/25 06:11:49;;;;;;;17.30;13.47;;;;;;;;;;5009016;28;20210;-70
2022/04/25 06:14:14;;;;;;;17.57;13.47;;;;;;;;;;5013635;28;20182;-70
2022/04/25 06:16:39;;;;;;;17.90;12.47;;;;;;;;;;5000254;28;20191;-71
2022/04/25 06:19:04;;;;;;;17.47;13.47;;;;;;;;;;4998020;28;20183;-72
2022/04/25 06:21:29;;;;;;;18.83;13.87;;;;;;;;;;5006995;28;20635;-72
2022/04/25 06:23:55;;;;;;;18.03;14.70;;;;;;;;;;5007238;28;20198;-71
2022/04/25 06:26:20;;;;;;;18.53;14.07;;;;;;;;;;5011650;28;20175;-71
2022/04/25 06:28:45;;;;;;;18.63;14.40;;;;;;;;;;5015586;28;20179;-71
2022/04/25 06:31:10;;;;;;;21.13;14.10;;;;;;;;;;5017291;28;20209;-69
2022/04/25 06:33:35;;;;;;;19.10;12.57;;;;;;;;;;5018448;28;20213;-71
2022/04/25 06:36:01;;;;;;;17.70;13.53;;;;;;;;;;5012872;28;20171;-69
2022/04/25 06:38:26;;;;;;;17.30;13.30;;;;;;;;;;5006723;28;20675;-72
2022/04/25 06:40:51;;;;;;;17.23;12.97;;;;;;;;;;5015736;28;20202;-69
2022/04/25 06:43:16;;;;;;;17.30;13.90;;;;;;;;;;5020424;28;20694;-72
2022/04/25 06:45:42;;;;;;;13.70;12.17;;;;;;;;;;5022888;28;20190;-72
2022/04/25 06:48:07;;;;;;;18.33;13.57;;;;;;;;;;5007493;28;20200;-68
2022/04/25 06:50:32;;;;;;;22.73;16.67;;;;;;;;;;5007289;28;20195;-71
2022/04/25 06:52:57;;;;;;;20.30;15.57;;;;;;;;;;4996223;28;20190;-70
2022/04/25 06:55:23;;;;;;;22.17;16.47;;;;;;;;;;5016362;28;20210;-71
2022/04/25 06:57:48;;;;;;;19.63;15.27;;;;;;;;;;5006579;28;20186;-71
2022/04/25 07:00:13;;;;;;;21.23;16.07;;;;;;;;;;5007754;28;20735;-71
2022/04/25 07:02:39;;;;;;;24.10;16.07;;;;;;;;;;5013092;28;20181;-71
2022/04/25 07:05:07;;;;;;;22.77;16.27;;;;;;;;;;5006308;28;20210;-71
2022/04/25 07:07:32;;;;;;;20.33;16.77;;;;;;;;;;5007748;28;20183;-69
2022/04/25 07:09:58;;;;;;;24.93;17.27;;;;;;;;;;5006632;28;20178;-70
2022/04/25 07:12:23;;;;;;;23.63;17.30;;;;;;;;;;5010665;28;20175;-69
2022/04/25 07:14:49;;;;;;;22.73;17.03;;;;;;;;;;5013239;28;20182;-70
2022/04/25 07:17:14;;;;;;;23.90;16.70;;;;;;;;;;5011772;28;20248;-72
2022/04/25 07:19:39;;;;;;;24.90;17.30;;;;;;;;;;5007394;28;20848;-69
2022/04/25 07:30:17;;;;;;;25.57;18.07;;;;;;;;;;5010163;28;20206;-69
2022/04/25 07:32:43;;;;;;;24.07;16.57;;;;;;;;;;5008521;28;20176;-69
2022/04/25 07:35:08;;;;;;;20.20;15.90;;;;;;;;;;5010137;28;20273;-71
2022/04/25 07:37:33;;;;;;;19.90;15.73;;;;;;;;;;5008581;28;20281;-71
2022/04/25 07:39:59;;;;;;;21.67;16.93;;;;;;;;;;5011081;28;20568;-71
2022/04/25 07:42:24;;;;;;;22.07;16.80;;;;;;;;;;5011907;28;20262;-70
2022/04/25 07:44:49;;;;;;;17.93;14.57;;;;;;;;;;5012668;28;20194;-69
2022/04/25 07:47:14;;;;;;;20.57;15.67;;;;;;;;;;5005271;28;20194;-69
2022/04/25 07:49:40;;;;;;;20.20;15.77;;;;;;;;;;5000798;28;20195;-70
2022/04/25 07:52:05;;;;;;;23.53;17.17;;;;;;;;;;5011570;28;20191;-69
2022/04/25 07:54:31;;;;;;;17.53;14.53;;;;;;;;;;5011630;28;20229;-70
2022/04/25 07:56:56;;;;;;;20.00;14.57;;;;;;;;;;5011418;28;20718;-70
2022/04/25 07:59:21;;;;;;;18.83;14.30;;;;;;;;;;5006385;28;20302;-70
2022/04/25 08:01:47;;;;;;;19.17;14.63;;;;;;;;;;5006760;28;20232;-70
2022/04/25 08:04:12;;;;;;;19.10;15.60;;;;;;;;;;5009506;28;20207;-69
2022/04/25 08:06:38;;;;;;;18.20;13.67;;;;;;;;;;5010170;28;20560;-70
2022/04/25 08:09:03;;;;;;;16.93;13.63;;;;;;;;;;5008029;28;20179;-70
2022/04/25 08:11:29;;;;;;;18.30;14.83;;;;;;;;;;5005614;28;20582;-70
2022/04/25 08:19:21;;;;;;;17.47;14.20;;;;;;;;;;5002812;28;20561;-70
2022/04/25 08:21:47;;;;;;;18.13;13.43;;;;;;;;;;5010185;28;20203;-70
2022/04/25 08:24:14;;;;;;;19.30;15.30;;;;;;;;;;5012521;28;20214;-70
2022/04/25 08:26:39;;;;;;;16.00;13.23;;;;;;;;;;5007789;28;20187;-70
2022/04/25 08:29:05;;;;;;;16.93;14.07;;;;;;;;;;5007483;28;20183;-71
2022/04/25 08:31:33;;;;;;;16.40;13.33;;;;;;;;;;5006201;28;20208;-71
2022/04/25 08:33:59;;;;;;;16.33;13.40;;;;;;;;;;5007675;28;20187;-71
2022/04/25 08:36:24;;;;;;;16.10;12.90;;;;;;;;;;5007835;28;20534;-69
2022/04/25 08:38:50;;;;;;;19.37;12.60;;;;;;;;;;5006378;28;20187;-71
2022/04/25 08:41:16;;;;;;;15.93;12.63;;;;;;;;;;5008943;28;20551;-71
2022/04/25 08:43:42;;;;;;;15.17;13.57;;;;;;;;;;5007220;28;20289;-71
2022/04/25 08:46:08;;;;;;;16.80;13.13;;;;;;;;;;5009054;28;20190;-71
2022/04/25 08:48:34;;;;;;;14.27;12.77;;;;;;;;;;5010839;28;20275;-71
2022/04/25 08:51:00;;;;;;;15.40;11.13;;;;;;;;;;5009462;28;20278;-71
2022/04/25 08:53:25;;;;;;;13.27;11.87;;;;;;;;;;5008455;28;20237;-71
2022/04/25 08:55:53;;;;;;;14.30;12.80;;;;;;;;;;5011061;28;20187;-71
2022/04/25 08:58:18;;;;;;;14.37;12.17;;;;;;;;;;5006802;28;20262;-71
2022/04/25 09:00:44;;;;;;;15.13;12.20;;;;;;;;;;5007511;28;20214;-69
2022/04/25 09:03:10;;;;;;;14.30;12.13;;;;;;;;;;5007619;28;20566;-71
2022/04/25 09:05:36;;;;;;;23.87;14.30;;;;;;;;;;5008809;28;20213;-71
2022/04/25 09:08:01;;;;;;;13.70;11.93;;;;;;;;;;5008385;28;20213;-70
2022/04/25 09:10:27;;;;;;;12.93;11.60;;;;;;;;;;5004420;28;20212;-71
2022/04/25 09:12:53;;;;;;;14.77;12.87;;;;;;;;;;5003967;28;20219;-71
2022/04/25 09:15:20;;;;;;;14.53;12.60;;;;;;;;;;5008876;28;20230;-69
2022/04/25 09:17:45;;;;;;;13.70;11.57;;;;;;;;;;5007046;28;20530;-68
2022/04/25 09:20:10;;;;;;;16.43;12.63;;;;;;;;;;5006087;28;20217;-71
2022/04/25 09:22:37;;;;;;;16.83;12.50;;;;;;;;;;5008514;28;20292;-69
2022/04/25 09:25:03;;;;;;;17.53;12.83;;;;;;;;;;5012794;28;20202;-69
2022/04/25 09:27:29;;;;;;;15.33;12.63;;;;;;;;;;5012143;28;20182;-71
2022/04/25 09:29:54;;;;;;;14.80;12.63;;;;;;;;;;5014612;28;20557;-69
2022/04/25 09:32:30;;;;;;;14.17;12.67;;;;;;;;;;5011667;28;20194;-69
2022/04/25 09:35:03;;;;;;;15.13;13.07;;;;;;;;;;5012255;28;20185;-70
2022/04/25 09:37:42;;;;;;;17.17;12.67;;;;;;;;;;5013103;28;20270;-69
2022/04/25 09:40:07;;;;;;;17.70;13.03;;;;;;;;;;5010484;28;20205;-69
2022/04/25 09:42:32;;;;;;;18.30;13.00;;;;;;;;;;5013491;28;20192;-69
2022/04/25 09:44:59;;;;;;;18.37;14.20;;;;;;;;;;5012870;28;20210;-71
2022/04/25 09:47:25;;;;;;;16.63;13.40;;;;;;;;;;5010093;28;21133;-70
2022/04/25 09:50:02;;;;;;;15.90;13.03;;;;;;;;;;5012890;28;20199;-70
2022/04/25 09:52:27;;;;;;;16.20;13.30;;;;;;;;;;5013368;28;20183;-70
2022/04/25 09:54:52;;;;;;;16.07;13.03;;;;;;;;;;5015045;28;20175;-71
2022/04/25 09:57:36;;;;;;;19.17;14.07;;;;;;;;;;5011955;28;20199;-71
2022/04/25 10:00:01;;;;;;;16.03;12.53;;;;;;;;;;5014657;28;20249;-71
2022/04/25 10:02:27;;;;;;;18.47;14.27;;;;;;;;;;5005731;28;20195;-70
2022/04/25 10:04:52;;;;;;;17.37;13.87;;;;;;;;;;5013567;28;20210;-71
2022/04/25 10:07:20;;;;;;;23.07;14.67;;;;;;;;;;5013344;28;20171;-70
2022/04/25 10:09:46;;;;;;;19.63;14.23;;;;;;;;;;5012309;28;20175;-70
2022/04/25 10:12:12;;;;;;;19.77;14.13;;;;;;;;;;5010291;28;20183;-71
2022/04/25 10:14:37;;;;;;;16.47;13.13;;;;;;;;;;5009219;28;20213;-70
2022/04/25 10:17:03;;;;;;;19.70;13.73;;;;;;;;;;5007020;28;20580;-70
2022/04/25 10:19:29;;;;;;;20.23;14.63;;;;;;;;;;5012487;28;20617;-70
2022/04/25 10:21:55;;;;;;;19.80;14.90;;;;;;;;;;5012157;28;20597;-70
2022/04/25 10:24:21;;;;;;;20.80;13.80;;;;;;;;;;5011820;28;20203;-70
2022/04/25 10:26:50;;;;;;;17.40;14.67;;;;;;;;;;5009850;28;20270;-69
2022/04/25 10:29:24;;;;;;;19.50;14.10;;;;;;;;;;5009041;28;20262;-70
2022/04/25 10:31:49;;;;;;;18.03;13.83;;;;;;;;;;5011112;28;20209;-70
2022/04/25 10:34:16;;;;;;;23.10;15.87;;;;;;;;;;5009459;28;20187;-70
2022/04/25 10:36:42;;;;;;;23.27;14.00;;;;;;;;;;5005060;28;20229;-70
2022/04/25 10:39:14;;;;;;;18.27;14.47;;;;;;;;;;5010585;28;20210;-70
2022/04/25 10:44:27;;;;;;;15.90;12.70;;;;;;;;;;5011125;28;20225;-70
2022/04/25 10:47:04;;;;;;;18.90;12.27;;;;;;;;;;5008057;28;20178;-70
2022/04/25 10:49:32;;;;;;;15.60;12.17;;;;;;;;;;5010535;28;20531;-70
2022/04/25 10:51:57;;;;;;;17.27;12.70;;;;;;;;;;5009802;28;20287;-70
2022/04/25 10:54:29;;;;;;;22.07;12.97;;;;;;;;;;5011036;28;20183;-70
2022/04/25 10:57:13;;;;;;;16.53;12.77;;;;;;;;;;5010511;28;20195;-71
2022/04/25 10:59:38;;;;;;;18.17;13.03;;;;;;;;;;5011817;28;20591;-71
2022/04/25 11:02:23;;;;;;;19.67;14.07;;;;;;;;;;5011510;28;20206;-70
2022/04/25 11:05:08;;;;;;;19.83;13.40;;;;;;;;;;5007283;28;20240;-70
2022/04/25 11:07:35;;;;;;;20.53;14.97;;;;;;;;;;5007699;28;20273;-72
2022/04/25 11:10:01;;;;;;;16.93;13.90;;;;;;;;;;5010922;28;20176;-72
2022/04/25 11:12:44;;;;;;;18.30;13.20;;;;;;;;;;5011311;28;20174;-71
2022/04/25 11:15:10;;;;;;;17.70;12.93;;;;;;;;;;5012841;28;20206;-69
2022/04/25 11:17:35;;;;;;;15.90;13.23;;;;;;;;;;5010130;28;20688;-70
2022/04/25 11:20:00;;;;;;;14.87;12.13;;;;;;;;;;5012885;28;20188;-70
2022/04/25 11:22:40;;;;;;;15.50;12.73;;;;;;;;;;5011967;28;20194;-70
2022/04/25 11:25:35;;;;;;;16.75;12.68;;;;;;;;;;5009254;28;20198;-70
2022/04/25 11:28:04;;;;;;;16.05;11.93;;;;;;;;;;5009082;28;20582;-72
2022/04/25 11:30:29;;;;;;;15.50;11.38;;;;;;;;;;5013548;28;20190;-70
2022/04/25 11:33:01;;;;;;;14.25;11.48;;;;;;;;;;5010685;28;20194;-70
2022/04/25 11:35:26;;;;;;;15.43;11.82;;;;;;;;;;5010995;28;20661;-70
2022/04/25 11:37:55;;;;;;;13.20;11.35;;;;;;;;;;5011389;28;20194;-69
2022/04/25 11:40:20;;;;;;;14.77;10.90;;;;;;;;;;5005543;28;20199;-70
2022/04/25 11:42:45;;;;;;;12.73;10.75;;;;;;;;;;5011122;28;20175;-70
2022/04/25 11:45:10;;;;;;;13.13;11.17;;;;;;;;;;5007640;28;20222;-69
2022/04/25 11:47:35;;;;;;;13.45;11.40;;;;;;;;;;5010511;28;20420;-70
2022/04/25 11:50:05;;;;;;;13.25;10.23;;;;;;;;;;5009758;28;20175;-70
2022/04/25 11:52:30;;;;;;;14.43;11.20;;;;;;;;;;5009110;28;20748;-69
2022/04/25 11:54:56;;;;;;;14.75;11.25;;;;;;;;;;5010803;28;20274;-70
2022/04/25 11:57:22;;;;;;;13.82;10.32;;;;;;;;;;5009019;28;20186;-70
2022/04/25 11:59:47;;;;;;;13.85;10.40;;;;;;;;;;5011275;28;20202;-70
2022/04/25 12:02:12;;;;;;;13.88;11.20;;;;;;;;;;5012417;28;20257;-71
2022/04/25 12:04:38;;;;;;;16.58;10.55;;;;;;;;;;5007492;28;20242;-69
2022/04/25 12:07:07;;;;;;;15.38;11.73;;;;;;;;;;5006145;28;20175;-71
2022/04/25 12:18:11;;;;;;;13.52;10.73;;;;;;;;;;5004389;28;20262;-71
2022/04/25 12:20:36;;;;;;;14.20;10.18;;;;;;;;;;5007549;28;20612;-70
2022/04/25 12:23:02;;;;;;;13.32;10.40;;;;;;;;;;5010575;28;20170;-71
2022/04/25 12:25:28;;;;;;;15.83;11.80;;;;;;;;;;5008740;28;20225;-71
2022/04/25 12:28:07;;;;;;;15.43;11.30;;;;;;;;;;5010275;28;20175;-72
2022/04/25 12:30:46;;;;;;;19.17;10.77;;;;;;;;;;5011726;28;20204;-71
2022/04/25 12:33:12;;;;;;;12.00;10.80;;;;;;;;;;5009868;28;20175;-69
2022/04/25 12:35:37;;;;;;;14.93;10.48;;;;;;;;;;5006942;28;20895;-70
2022/04/25 12:38:06;;;;;;;14.93;10.15;;;;;;;;;;5005581;28;20270;-70
2022/04/25 12:40:51;;;;;;;14.60;10.90;;;;;;;;;;5007535;28;20202;-70
2022/04/25 12:43:33;;;;;;;12.63;10.02;;;;;;;;;;5009422;28;20244;-70
2022/04/25 12:45:58;;;;;;;14.18;10.68;;;;;;;;;;5006761;28;20265;-70
2022/04/25 12:48:23;;;;;;;14.52;11.02;;;;;;;;;;5006193;28;20258;-70
2022/04/25 12:50:48;;;;;;;14.75;11.10;;;;;;;;;;5008254;28;20206;-70
2022/04/25 12:53:13;;;;;;;15.45;12.07;;;;;;;;;;5009864;28;20171;-70
2022/04/25 12:55:43;;;;;;;16.30;11.10;;;;;;;;;;5011098;28;20274;-70
2022/04/25 12:58:08;;;;;;;13.25;10.73;;;;;;;;;;5006909;28;20211;-70
2022/04/25 13:00:40;;;;;;;16.08;11.68;;;;;;;;;;5011102;28;20295;-71
2022/04/25 13:03:05;;;;;;;16.73;12.05;;;;;;;;;;5010418;28;20237;-70
2022/04/25 13:05:31;;;;;;;15.97;12.77;;;;;;;;;;5010696;28;20206;-70
2022/04/25 13:07:56;;;;;;;15.57;12.53;;;;;;;;;;5005678;28;21729;-70
2022/04/25 13:10:21;;;;;;;17.77;11.97;;;;;;;;;;5009180;28;20186;-70
2022/04/25 13:12:48;;;;;;;17.57;12.33;;;;;;;;;;5010066;28;20432;-70
2022/04/25 13:15:14;;;;;;;15.40;12.27;;;;;;;;;;5014369;28;20179;-70
2022/04/25 13:17:40;;;;;;;14.90;12.10;;;;;;;;;;5012543;28;20269;-70
2022/04/25 13:20:15;;;;;;;20.23;13.33;;;;;;;;;;5014584;28;20226;-72
2022/04/25 13:22:44;;;;;;;15.93;13.73;;;;;;;;;;5012509;28;20664;-70
2022/04/25 13:25:10;;;;;;;14.77;13.13;;;;;;;;;;5012523;28;20198;-70
2022/04/25 13:27:35;;;;;;;17.30;13.43;;;;;;;;;;5013555;28;20244;-70
2022/04/25 13:30:01;;;;;;;17.73;13.47;;;;;;;;;;5017678;28;20185;-70
2022/04/25 13:32:26;;;;;;;19.83;13.57;;;;;;;;;;5014607;28;20171;-70
2022/04/25 13:34:51;;;;;;;15.33;12.40;;;;;;;;;;5014391;28;20178;-70
2022/04/25 13:37:17;;;;;;;17.90;13.43;;;;;;;;;;5019225;28;20261;-70
2022/04/25 13:39:42;;;;;;;17.83;14.07;;;;;;;;;;5015377;28;20664;-70
2022/04/25 13:42:08;;;;;;;15.37;11.97;;;;;;;;;;5019020;28;20199;-70
2022/04/25 13:44:34;;;;;;;17.00;12.87;;;;;;;;;;5019221;28;20735;-71
2022/04/25 13:46:59;;;;;;;22.70;14.10;;;;;;;;;;5016416;28;20179;-70
2022/04/25 13:49:25;;;;;;;20.07;13.97;;;;;;;;;;4998990;28;20368;-71
2022/04/25 13:51:50;;;;;;;17.37;13.13;;;;;;;;;;5008616;28;20218;-70
2022/04/25 13:54:15;;;;;;;19.73;14.37;;;;;;;;;;5009219;28;20583;-71
2022/04/25 13:56:41;;;;;;;23.63;16.13;;;;;;;;;;5009508;28;20190;-71
2022/04/25 13:59:07;;;;;;;22.37;14.00;;;;;;;;;;5007816;28;20191;-69
2022/04/25 14:01:32;;;;;;;16.87;13.60;;;;;;;;;;5009051;28;20221;-71
2022/04/25 14:03:57;;;;;;;17.77;14.43;;;;;;;;;;5003899;28;20215;-71
2022/04/25 14:06:23;;;;;;;19.90;14.63;;;;;;;;;;5008602;28;20233;-69
2022/04/25 14:08:48;;;;;;;21.47;15.47;;;;;;;;;;4999385;28;20168;-72
2022/04/25 14:11:13;;;;;;;20.00;15.87;;;;;;;;;;5011365;28;20191;-71
2022/04/25 14:13:38;;;;;;;19.33;15.10;;;;;;;;;;5013803;28;20486;-69
2022/04/25 14:16:04;;;;;;;19.10;14.13;;;;;;;;;;5009904;28;20270;-69
2022/04/25 14:18:30;;;;;;;20.67;14.80;;;;;;;;;;5005631;28;20186;-70
2022/04/25 14:20:55;;;;;;;24.20;16.20;;;;;;;;;;5012742;28;20281;-69
2022/04/25 14:23:21;;;;;;;22.50;14.67;;;;;;;;;;5013516;28;20725;-71
2022/04/25 14:25:46;;;;;;;20.77;14.03;;;;;;;;;;5013557;28;20249;-71
2022/04/25 14:28:12;;;;;;;19.33;14.43;;;;;;;;;;5012787;28;20633;-69
2022/04/25 14:30:37;;;;;;;21.13;14.50;;;;;;;;;;5012898;28;20210;-69
2022/04/25 14:33:02;;;;;;;19.07;14.20;;;;;;;;;;5011242;28;20183;-70
2022/04/25 14:35:28;;;;;;;21.17;14.03;;;;;;;;;;5013430;28;20187;-72
2022/04/25 14:37:53;;;;;;;19.13;14.80;;;;;;;;;;5012600;28;20698;-69
2022/04/25 14:40:19;;;;;;;18.03;13.83;;;;;;;;;;5013770;28;20214;-69
2022/04/25 14:42:44;;;;;;;24.57;15.23;;;;;;;;;;5013564;28;20233;-70
2022/04/25 14:45:10;;;;;;;21.33;14.53;;;;;;;;;;5011022;28;20211;-69
2022/04/25 14:47:35;;;;;;;21.43;15.03;;;;;;;;;;5009165;28;20174;-71
2022/04/25 14:55:28;;;;;;;17.73;14.97;;;;;;;;;;5011532;28;20230;-72
2022/04/25 14:57:53;;;;;;;22.17;15.27;;;;;;;;;;5004637;28;20404;-72